Time;durP1;ratioP1;P1;durP2;ratioP2;P2;SDS_P1;SDS_P2;PMS_P1;PMS_P2;Temp;Humidity;BMP_temperature;BMP_pressure;BME280_temperature;BME280_humidity;BME280_pressure;Samples;Min_cycle;Max_cycle;Signal;HPM_P1;HPM_P2
2023/01/31 00:01:19;;;;;;;7.57;6.27;;;;;;;1.06;100.00;97387.38;5023109;28;20213;-63
2023/01/31 00:03:47;;;;;;;12.43;6.30;;;;;;;1.09;100.00;97391.53;5072766;28;20517;-64
2023/01/31 00:06:17;;;;;;;7.00;6.07;;;;;;;1.07;100.00;97401.25;5075558;28;20257;-65
2023/01/31 00:08:46;;;;;;;8.97;5.73;;;;;;;1.06;100.00;97407.41;5044583;28;20217;-61
2023/01/31 00:11:15;;;;;;;8.10;5.70;;;;;;;1.03;100.00;97394.63;5046125;28;20226;-64
2023/01/31 00:13:44;;;;;;;8.33;6.03;;;;;;;1.06;100.00;97394.38;5046845;28;20222;-61
2023/01/31 00:16:13;;;;;;;7.40;6.00;;;;;;;1.04;100.00;97388.44;5028036;28;20442;-64
2023/01/31 00:18:41;;;;;;;11.60;6.33;;;;;;;1.08;100.00;97395.94;5070834;28;20412;-62
2023/01/31 00:21:10;;;;;;;7.57;6.43;;;;;;;1.08;100.00;97408.13;5060732;28;20218;-62
2023/01/31 00:23:38;;;;;;;11.47;6.63;;;;;;;1.07;100.00;97411.69;5055855;28;20202;-62
2023/01/31 00:26:14;;;;;;;9.73;6.07;;;;;;;1.04;100.00;97406.72;5045163;28;20631;-65
2023/01/31 00:28:44;;;;;;;7.23;5.17;;;;;;;1.02;100.00;97412.06;5044321;28;20205;-62
2023/01/31 00:31:12;;;;;;;6.33;5.03;;;;;;;1.00;100.00;97420.00;5026762;28;20747;-65
2023/01/31 00:33:41;;;;;;;7.60;5.63;;;;;;;1.03;100.00;97420.72;5061923;28;20497;-61
2023/01/31 00:36:11;;;;;;;7.23;5.13;;;;;;;1.06;100.00;97429.16;5068519;28;20289;-62
2023/01/31 00:38:40;;;;;;;5.57;5.07;;;;;;;1.07;100.00;97428.19;5047500;28;20222;-62
2023/01/31 00:41:08;;;;;;;10.80;5.30;;;;;;;1.10;100.00;97430.56;5068034;28;20225;-64
2023/01/31 00:43:37;;;;;;;7.87;5.07;;;;;;;1.08;100.00;97423.78;5038570;28;20210;-62
2023/01/31 00:46:06;;;;;;;8.50;5.90;;;;;;;1.05;100.00;97419.66;5064422;28;20212;-64
2023/01/31 00:48:34;;;;;;;6.43;5.13;;;;;;;1.05;100.00;97427.47;5022995;28;20210;-62
2023/01/31 00:51:02;;;;;;;8.73;5.30;;;;;;;1.05;100.00;97430.09;5068271;28;20713;-64
2023/01/31 00:53:30;;;;;;;6.57;4.63;;;;;;;1.01;100.00;97428.66;5056846;28;20665;-62
2023/01/31 00:56:03;;;;;;;5.83;5.23;;;;;;;0.99;100.00;97420.94;5056380;28;20202;-63
2023/01/31 00:58:30;;;;;;;8.90;5.13;;;;;;;1.04;100.00;97418.00;5038432;28;20227;-62
2023/01/31 01:01:07;;;;;;;9.60;5.70;;;;;;;1.04;100.00;97418.00;5054364;28;20828;-63
2023/01/31 01:03:34;;;;;;;7.27;5.23;;;;;;;1.08;100.00;97436.84;5024371;28;20811;-62
2023/01/31 01:06:02;;;;;;;6.07;5.10;;;;;;;1.06;100.00;97430.91;5069176;28;20465;-63
2023/01/31 01:08:29;;;;;;;5.80;5.23;;;;;;;1.05;100.00;97429.25;5066383;28;20229;-62
2023/01/31 01:11:01;;;;;;;6.60;4.60;;;;;;;1.01;100.00;97442.53;5053775;28;20744;-63
2023/01/31 01:13:29;;;;;;;9.87;5.00;;;;;;;1.02;100.00;97432.94;5045568;28;20207;-62
2023/01/31 01:15:56;;;;;;;7.10;5.23;;;;;;;0.99;100.00;97438.41;5051715;28;20529;-61
2023/01/31 01:18:25;;;;;;;6.60;5.07;;;;;;;1.06;100.00;97436.13;5026134;28;20240;-63
2023/01/31 01:20:53;;;;;;;11.33;4.80;;;;;;;1.05;100.00;97437.06;5065957;28;20396;-62
2023/01/31 01:23:20;;;;;;;6.47;5.43;;;;;;;1.06;100.00;97441.34;5061821;28;20738;-63
2023/01/31 01:25:48;;;;;;;9.13;5.50;;;;;;;1.12;100.00;97444.31;5051202;28;20195;-62
2023/01/31 01:28:15;;;;;;;6.73;5.07;;;;;;;1.10;100.00;97440.16;5066772;28;21206;-64
2023/01/31 01:30:43;;;;;;;6.27;5.33;;;;;;;1.03;100.00;97434.59;5024662;28;20241;-64
2023/01/31 01:33:10;;;;;;;5.70;4.60;;;;;;;1.06;100.00;97450.03;5062212;28;20202;-64
2023/01/31 01:35:39;;;;;;;8.93;4.77;;;;;;;1.07;100.00;97430.81;5021372;28;20510;-63
2023/01/31 01:38:07;;;;;;;8.53;5.57;;;;;;;1.03;100.00;97442.44;5064767;28;20656;-66
2023/01/31 01:40:35;;;;;;;10.40;5.30;;;;;;;1.01;100.00;97441.72;5056586;28;20232;-64
2023/01/31 01:43:03;;;;;;;9.57;5.70;;;;;;;1.05;100.00;97443.13;5063051;28;20285;-66
2023/01/31 01:45:31;;;;;;;8.07;5.40;;;;;;;1.06;100.00;97449.19;5037006;28;20218;-61
2023/01/31 01:48:00;;;;;;;10.10;5.53;;;;;;;1.07;100.00;97445.63;5053532;28;20297;-64
2023/01/31 01:50:31;;;;;;;8.70;4.97;;;;;;;1.05;100.00;97443.13;5026188;28;20240;-62
2023/01/31 01:53:02;;;;;;;10.10;5.50;;;;;;;1.01;100.00;97441.72;5060733;28;20652;-62
2023/01/31 01:55:33;;;;;;;9.13;4.83;;;;;;;1.01;100.00;97445.13;5066107;28;20333;-62
2023/01/31 01:58:05;;;;;;;7.07;4.60;;;;;;;0.99;100.00;97441.00;5066113;28;20301;-65
2023/01/31 02:00:33;;;;;;;6.40;4.80;;;;;;;0.98;100.00;97445.38;5053239;28;20233;-62
2023/01/31 02:03:03;;;;;;;6.70;4.53;;;;;;;1.01;100.00;97446.94;5040974;28;20568;-65
2023/01/31 02:05:32;;;;;;;6.93;4.83;;;;;;;0.99;100.00;97438.41;5022684;28;20221;-62
2023/01/31 02:08:02;;;;;;;5.27;4.47;;;;;;;1.00;100.00;97450.50;5065536;28;20898;-63
2023/01/31 02:10:32;;;;;;;7.70;5.27;;;;;;;1.01;100.00;97452.97;5071105;28;20248;-62
2023/01/31 02:13:00;;;;;;;5.77;4.97;;;;;;;1.02;100.00;97459.03;5049019;28;20729;-65
2023/01/31 02:15:28;;;;;;;9.33;4.80;;;;;;;1.00;100.00;97453.91;5065766;28;20705;-62
2023/01/31 02:17:56;;;;;;;5.87;4.93;;;;;;;0.96;100.00;97449.88;5032282;28;20214;-61
2023/01/31 02:20:45;;;;;;;11.53;5.47;;;;;;;0.99;100.00;97448.84;5026825;28;20218;-64
2023/01/31 02:23:29;;;;;;;7.80;4.97;;;;;;;0.97;100.00;97458.56;5065409;28;20198;-65
2023/01/31 02:26:22;;;;;;;6.80;4.87;;;;;;;0.99;100.00;97464.50;5050823;28;20605;-62
2023/01/31 02:29:24;;;;;;;7.20;5.10;;;;;;;0.98;100.00;97470.66;5041275;28;20910;-61
2023/01/31 02:32:12;;;;;;;10.77;4.70;;;;;;;0.99;100.00;97477.53;5051634;28;20454;-63
2023/01/31 02:34:45;;;;;;;4.67;3.97;;;;;;;0.92;100.00;97482.38;5010193;28;20213;-63
2023/01/31 02:37:20;;;;;;;6.70;4.93;;;;;;;0.89;100.00;97479.16;5055100;28;20373;-65
2023/01/31 02:39:55;;;;;;;9.27;4.27;;;;;;;0.84;100.00;97485.56;5068914;28;20232;-65
2023/01/31 02:42:29;;;;;;;8.03;4.83;;;;;;;0.80;100.00;97486.72;5065185;28;20197;-64
2023/01/31 02:45:05;;;;;;;9.43;4.67;;;;;;;0.82;100.00;97486.63;5049298;28;20225;-63
2023/01/31 02:47:43;;;;;;;5.87;4.40;;;;;;;0.86;100.00;97501.91;5053916;28;20224;-62
2023/01/31 02:50:14;;;;;;;7.13;4.50;;;;;;;0.83;100.00;97489.09;5007898;28;20218;-64
2023/01/31 02:52:46;;;;;;;8.07;5.70;;;;;;;0.84;100.00;97505.59;5041802;28;20418;-62
2023/01/31 02:58:06;;;;;;;6.07;5.43;;;;;;;0.85;100.00;97497.66;5047481;28;21039;-63
2023/01/31 03:00:35;;;;;;;7.90;4.53;;;;;;;0.83;100.00;97499.53;5067499;28;20237;-63
2023/01/31 03:03:06;;;;;;;6.10;4.27;;;;;;;0.82;100.00;97504.91;5040128;28;20363;-65
2023/01/31 03:05:34;;;;;;;6.10;4.77;;;;;;;0.80;100.00;97510.22;5004092;28;20218;-62
2023/01/31 03:08:03;;;;;;;9.00;4.63;;;;;;;0.83;100.00;97504.75;5058333;28;20327;-62
2023/01/31 03:10:51;;;;;;;10.43;6.57;;;;;;;0.82;100.00;97510.13;5052565;28;20802;-65
2023/01/31 03:13:28;;;;;;;4.47;4.07;;;;;;;0.81;100.00;97506.66;5049153;28;20621;-62
2023/01/31 03:18:59;;;;;;;6.10;4.23;;;;;;;0.80;100.00;97519.84;5047102;28;20256;-63
2023/01/31 03:21:30;;;;;;;6.47;4.67;;;;;;;0.75;100.00;97519.31;4998427;28;20870;-64
2023/01/31 03:23:58;;;;;;;11.53;4.90;;;;;;;0.77;100.00;97531.31;5068754;28;20330;-64
2023/01/31 03:26:27;;;;;;;4.67;3.90;;;;;;;0.77;100.00;97527.88;5070348;28;20221;-63
2023/01/31 03:28:57;;;;;;;5.43;4.33;;;;;;;0.80;100.00;97533.69;5069689;28;20230;-65
2023/01/31 03:31:27;;;;;;;5.93;4.10;;;;;;;0.79;100.00;97532.03;5047394;28;20613;-61
2023/01/31 03:33:58;;;;;;;4.80;4.10;;;;;;;0.74;100.00;97534.16;5043649;28;20753;-63
2023/01/31 03:36:30;;;;;;;5.00;4.60;;;;;;;0.75;100.00;97534.97;5011753;28;20368;-63
2023/01/31 03:39:06;;;;;;;8.77;4.43;;;;;;;0.77;100.00;97546.97;5059784;28;20221;-64
2023/01/31 03:41:47;;;;;;;11.63;4.60;;;;;;;0.75;100.00;97553.22;5069030;28;20525;-65
2023/01/31 03:44:19;;;;;;;7.27;4.40;;;;;;;0.71;100.00;97550.84;5073177;28;20203;-62
2023/01/31 03:46:50;;;;;;;6.60;5.27;;;;;;;0.69;100.00;97538.88;5047014;28;20793;-64
2023/01/31 03:49:21;;;;;;;6.83;4.93;;;;;;;0.71;100.00;97544.81;5036348;28;20518;-61
2023/01/31 03:51:52;;;;;;;6.50;5.53;;;;;;;0.69;100.00;97534.47;5017618;28;20214;-62
2023/01/31 03:54:23;;;;;;;5.83;4.60;;;;;;;0.66;100.00;97544.31;5061551;28;20209;-64
2023/01/31 03:56:54;;;;;;;5.47;4.63;;;;;;;0.69;100.00;97551.91;5062233;28;20201;-62
2023/01/31 03:59:26;;;;;;;6.17;4.93;;;;;;;0.68;100.00;97558.91;5066029;28;21477;-64
2023/01/31 04:01:56;;;;;;;4.47;4.07;;;;;;;0.72;100.00;97554.28;5035971;28;20207;-62
2023/01/31 04:04:27;;;;;;;5.37;4.80;;;;;;;0.72;100.00;97569.94;5041939;28;20211;-63
2023/01/31 04:06:55;;;;;;;6.90;5.10;;;;;;;0.69;100.00;97557.94;4987824;28;21241;-64
2023/01/31 04:09:22;;;;;;;6.37;4.40;;;;;;;0.71;100.00;97570.91;5064888;28;20252;-61
2023/01/31 04:11:51;;;;;;;7.53;5.00;;;;;;;0.70;100.00;97583.09;5021291;28;21069;-63
2023/01/31 04:14:19;;;;;;;8.20;5.43;;;;;;;0.68;100.00;97584.16;5057704;28;20514;-63
2023/01/31 04:16:46;;;;;;;7.03;5.00;;;;;;;0.71;100.00;97589.16;5043631;28;20237;-65
2023/01/31 04:19:14;;;;;;;8.97;5.03;;;;;;;0.69;100.00;97589.25;5044850;28;20250;-65
2023/01/31 04:21:43;;;;;;;7.80;5.10;;;;;;;0.64;100.00;97604.41;5013610;28;20989;-65
2023/01/31 04:24:10;;;;;;;6.70;4.47;;;;;;;0.75;100.00;97600.19;5063378;28;20210;-65
2023/01/31 04:26:38;;;;;;;7.87;5.00;;;;;;;0.68;100.00;97595.41;5062344;28;20207;-62
2023/01/31 04:29:06;;;;;;;5.70;4.50;;;;;;;0.62;100.00;97595.84;5074815;28;20632;-64
2023/01/31 04:31:34;;;;;;;7.93;4.17;;;;;;;0.64;100.00;97601.78;5066483;28;20198;-63
2023/01/31 04:34:01;;;;;;;8.57;4.97;;;;;;;0.67;100.00;97604.19;5045391;28;20202;-63
2023/01/31 04:36:29;;;;;;;5.60;4.20;;;;;;;0.66;100.00;97599.91;5070218;28;20802;-62
2023/01/31 04:38:59;;;;;;;7.37;4.60;;;;;;;0.64;100.00;97596.56;5027077;28;20214;-61
2023/01/31 04:41:27;;;;;;;5.97;4.77;;;;;;;0.60;100.00;97599.53;5039812;28;20233;-62
2023/01/31 04:43:55;;;;;;;7.47;4.03;;;;;;;0.58;100.00;97594.41;5065707;28;20242;-65
2023/01/31 04:46:22;;;;;;;8.77;4.10;;;;;;;0.51;100.00;97595.81;5066002;28;20203;-62
2023/01/31 04:48:50;;;;;;;5.70;4.27;;;;;;;0.45;100.00;97597.06;5030878;28;20216;-62
2023/01/31 04:51:17;;;;;;;7.23;4.53;;;;;;;0.38;100.00;97601.06;5043704;28;20206;-65
2023/01/31 04:53:45;;;;;;;6.83;5.77;;;;;;;0.28;100.00;97601.72;5020141;28;20268;-64
2023/01/31 04:56:14;;;;;;;9.33;4.27;;;;;;;0.29;100.00;97610.38;5069550;28;20217;-65
2023/01/31 04:58:42;;;;;;;5.60;4.20;;;;;;;0.30;100.00;97606.00;5065287;28;20341;-65
2023/01/31 05:01:09;;;;;;;5.27;4.23;;;;;;;0.23;100.00;97598.63;5060272;28;20317;-64
2023/01/31 05:03:37;;;;;;;7.43;4.90;;;;;;;0.27;100.00;97602.66;5045250;28;20641;-64
2023/01/31 05:06:05;;;;;;;8.23;4.60;;;;;;;0.34;100.00;97612.66;5046560;28;20486;-65
2023/01/31 05:08:33;;;;;;;7.73;4.17;;;;;;;0.23;100.00;97603.84;5031349;28;20220;-62
2023/01/31 05:11:02;;;;;;;5.80;4.30;;;;;;;0.20;100.00;97598.84;5072695;28;20283;-65
2023/01/31 05:13:33;;;;;;;9.00;4.30;;;;;;;0.22;100.00;97610.00;5063795;28;20221;-63
2023/01/31 05:16:00;;;;;;;10.23;4.83;;;;;;;0.18;100.00;97599.88;5064973;28;20806;-67
2023/01/31 05:18:28;;;;;;;11.33;5.43;;;;;;;0.14;100.00;97607.06;5054902;28;20269;-64
2023/01/31 05:20:56;;;;;;;8.23;4.63;;;;;;;0.19;100.00;97601.53;5048258;28;20766;-66
2023/01/31 05:23:24;;;;;;;8.00;4.63;;;;;;;0.17;100.00;97601.63;5046657;28;20817;-64
2023/01/31 05:25:52;;;;;;;8.27;4.37;;;;;;;0.19;100.00;97604.16;5050749;28;20221;-65
2023/01/31 05:28:19;;;;;;;7.83;3.90;;;;;;;0.19;100.00;97602.38;5067657;28;20204;-65
2023/01/31 05:30:48;;;;;;;7.00;5.00;;;;;;;0.12;100.00;97601.13;5062871;28;20225;-65
2023/01/31 05:33:17;;;;;;;12.60;5.33;;;;;;;0.10;100.00;97610.81;5066961;28;20202;-65
2023/01/31 05:35:44;;;;;;;7.27;4.63;;;;;;;0.09;100.00;97607.41;5052835;28;21044;-64
2023/01/31 05:38:12;;;;;;;9.70;5.17;;;;;;;-0.02;100.00;97586.47;5025246;28;20206;-63
2023/01/31 05:40:39;;;;;;;5.90;4.30;;;;;;;0.03;100.00;97599.19;5029868;28;20210;-66
2023/01/31 05:43:07;;;;;;;5.13;4.10;;;;;;;-0.01;100.00;97594.19;5071780;28;20194;-64
2023/01/31 05:45:35;;;;;;;5.57;4.57;;;;;;;0.05;100.00;97598.13;5063757;28;20201;-66
2023/01/31 05:48:04;;;;;;;8.63;4.40;;;;;;;0.01;100.00;97601.06;5067978;28;21047;-65
2023/01/31 05:50:32;;;;;;;4.70;4.30;;;;;;;0.11;100.00;97604.69;5055824;28;20217;-65
2023/01/31 05:53:01;;;;;;;9.50;4.53;;;;;;;0.23;100.00;97595.16;5053118;28;20194;-65
2023/01/31 05:55:29;;;;;;;6.87;5.07;;;;;;;0.26;100.00;97608.81;5024896;28;20546;-65
2023/01/31 05:57:59;;;;;;;6.30;4.20;;;;;;;0.33;100.00;97604.00;5064385;28;20190;-62
2023/01/31 06:00:28;;;;;;;5.33;4.33;;;;;;;0.33;100.00;97616.19;5076446;28;20316;-66
2023/01/31 06:02:57;;;;;;;10.87;5.20;;;;;;;0.34;100.00;97623.09;5073281;28;20222;-63
2023/01/31 06:05:26;;;;;;;8.57;4.40;;;;;;;0.32;100.00;97614.53;5057964;28;20934;-65
2023/01/31 06:07:54;;;;;;;6.90;4.47;;;;;;;0.37;100.00;97622.88;5060083;28;20205;-63
2023/01/31 06:10:22;;;;;;;7.20;4.80;;;;;;;0.44;100.00;97621.47;5056439;28;20343;-66
2023/01/31 06:12:49;;;;;;;6.97;4.57;;;;;;;0.49;100.00;97614.16;5031071;28;20210;-63
2023/01/31 06:15:17;;;;;;;4.93;4.53;;;;;;;0.53;100.00;97618.22;5068293;28;20449;-65
2023/01/31 06:17:45;;;;;;;6.17;4.60;;;;;;;0.51;100.00;97616.66;5074201;28;20296;-65
2023/01/31 06:20:13;;;;;;;7.03;3.90;;;;;;;0.50;100.00;97622.81;5065702;28;20214;-64
2023/01/31 06:22:42;;;;;;;7.60;4.43;;;;;;;0.54;100.00;97627.69;5052786;28;21450;-63
2023/01/31 06:25:10;;;;;;;9.87;4.97;;;;;;;0.54;100.00;97640.72;5051776;28;20317;-65
2023/01/31 06:27:37;;;;;;;8.10;5.20;;;;;;;0.53;100.00;97648.69;5019980;28;20222;-64
2023/01/31 06:30:06;;;;;;;5.90;4.40;;;;;;;0.55;100.00;97647.63;5066622;28;20213;-63
2023/01/31 06:32:33;;;;;;;9.97;4.73;;;;;;;0.55;100.00;97649.41;5073218;28;20195;-65
2023/01/31 06:35:01;;;;;;;4.43;4.00;;;;;;;0.51;100.00;97646.16;5066924;28;20198;-63
2023/01/31 06:37:28;;;;;;;7.33;4.67;;;;;;;0.56;100.00;97651.88;5063462;28;20203;-66
2023/01/31 06:39:58;;;;;;;6.80;4.77;;;;;;;0.56;100.00;97651.06;5050521;28;20222;-63
2023/01/31 06:42:26;;;;;;;6.20;5.50;;;;;;;0.56;100.00;97656.28;5027314;28;20233;-66
2023/01/31 06:44:53;;;;;;;7.53;5.17;;;;;;;0.57;100.00;97653.59;5070709;28;20638;-63
2023/01/31 06:47:21;;;;;;;5.60;5.07;;;;;;;0.57;100.00;97652.72;5064878;28;20335;-66
2023/01/31 06:49:48;;;;;;;9.60;5.53;;;;;;;0.54;100.00;97661.59;5072573;28;20232;-63
2023/01/31 06:52:16;;;;;;;5.07;4.57;;;;;;;0.51;100.00;97656.59;5070606;28;20190;-64
2023/01/31 06:54:44;;;;;;;9.03;4.83;;;;;;;0.57;100.00;97661.41;5040970;28;20421;-65
2023/01/31 06:57:13;;;;;;;8.53;5.70;;;;;;;0.57;100.00;97658.78;5025766;28;20809;-66
2023/01/31 06:59:40;;;;;;;5.80;4.97;;;;;;;0.56;100.00;97658.88;5079612;28;20221;-65
2023/01/31 07:02:09;;;;;;;5.33;4.83;;;;;;;0.58;100.00;97677.88;5070822;28;20229;-65
2023/01/31 07:04:37;;;;;;;9.17;5.03;;;;;;;0.58;100.00;97670.03;5075610;28;20194;-66
2023/01/31 07:07:04;;;;;;;6.07;4.87;;;;;;;0.59;100.00;97678.72;5063431;28;20209;-63
2023/01/31 07:09:32;;;;;;;7.37;4.87;;;;;;;0.60;100.00;97685.59;5058221;28;20225;-65
2023/01/31 07:11:59;;;;;;;6.83;4.97;;;;;;;0.65;100.00;97684.31;5049267;28;20203;-62
2023/01/31 07:14:28;;;;;;;10.47;4.27;;;;;;;0.69;100.00;97684.94;5026312;28;20210;-65
2023/01/31 07:16:56;;;;;;;5.23;4.30;;;;;;;0.62;100.00;97675.88;5072119;28;20578;-61
2023/01/31 07:19:24;;;;;;;5.97;4.43;;;;;;;0.72;100.00;97679.50;5072991;28;20437;-64
2023/01/31 07:21:51;;;;;;;6.00;4.20;;;;;;;0.72;100.00;97684.72;5069747;28;20499;-63
2023/01/31 07:24:19;;;;;;;6.77;5.23;;;;;;;0.65;100.00;97675.66;5057214;28;20634;-64
2023/01/31 07:26:46;;;;;;;6.60;5.10;;;;;;;0.71;100.00;97693.50;5053448;28;20199;-66
2023/01/31 07:29:14;;;;;;;8.03;4.43;;;;;;;0.76;100.00;97686.16;5029475;28;20668;-65
2023/01/31 07:31:43;;;;;;;8.53;5.03;;;;;;;0.74;100.00;97693.25;5076501;28;20203;-66
2023/01/31 07:34:11;;;;;;;9.30;6.27;;;;;;;0.75;100.00;97699.28;5068983;28;20455;-65
2023/01/31 07:36:38;;;;;;;9.17;5.30;;;;;;;0.78;100.00;97688.66;5071163;28;20791;-65
2023/01/31 07:39:06;;;;;;;13.10;6.23;;;;;;;0.83;100.00;97673.53;5051781;28;20203;-63
2023/01/31 07:41:33;;;;;;;6.17;5.40;;;;;;;0.80;100.00;97679.78;5052142;28;20227;-65
2023/01/31 07:44:01;;;;;;;7.43;5.20;;;;;;;0.76;100.00;97664.44;5042294;28;20198;-64
2023/01/31 07:46:29;;;;;;;11.60;5.87;;;;;;;0.83;100.00;97674.34;5059453;28;20229;-64
2023/01/31 07:48:58;;;;;;;10.10;5.30;;;;;;;0.81;100.00;97664.97;5068339;28;20213;-63
2023/01/31 07:51:26;;;;;;;6.57;4.97;;;;;;;0.81;100.00;97672.81;5061151;28;21550;-64
2023/01/31 07:53:54;;;;;;;7.13;4.90;;;;;;;0.80;100.00;97656.31;5067923;28;20653;-60
2023/01/31 07:56:22;;;;;;;6.03;5.03;;;;;;;0.85;100.00;97656.78;5039821;28;21097;-63
2023/01/31 07:58:50;;;;;;;9.77;5.13;;;;;;;0.79;100.00;97657.25;5073185;28;20198;-62
2023/01/31 08:04:09;;;;;;;9.27;5.20;;;;;;;0.91;100.00;97676.41;5067080;28;20708;-64
2023/01/31 08:06:49;;;;;;;7.50;5.53;;;;;;;0.92;100.00;97669.38;5066103;28;20195;-62
2023/01/31 08:09:16;;;;;;;10.93;5.43;;;;;;;0.98;100.00;97676.81;5064807;28;20264;-64
2023/01/31 08:11:44;;;;;;;5.73;5.13;;;;;;;1.09;100.00;97686.44;5054633;28;20476;-65
2023/01/31 08:14:11;;;;;;;6.80;5.10;;;;;;;1.06;100.00;97684.06;5049148;28;20404;-65
2023/01/31 08:16:39;;;;;;;6.73;5.27;;;;;;;1.05;100.00;97701.50;5024652;28;20214;-64
2023/01/31 08:19:08;;;;;;;11.13;4.80;;;;;;;1.05;100.00;97696.28;5075683;28;20752;-62
2023/01/31 08:21:35;;;;;;;8.07;5.60;;;;;;;1.12;100.00;97697.50;5066909;28;20203;-65
2023/01/31 08:24:03;;;;;;;7.57;5.23;;;;;;;1.14;100.00;97698.22;5075389;28;20222;-61
2023/01/31 08:26:31;;;;;;;6.87;5.10;;;;;;;1.23;100.00;97695.88;5055874;28;20430;-63
2023/01/31 08:28:58;;;;;;;8.63;4.97;;;;;;;1.31;100.00;97706.59;5045772;28;20213;-61
2023/01/31 08:31:27;;;;;;;7.63;4.53;;;;;;;1.45;100.00;97700.34;5064616;28;20225;-64
2023/01/31 08:33:56;;;;;;;8.27;5.17;;;;;;;1.52;100.00;97700.72;5022066;28;20210;-63
2023/01/31 08:36:27;;;;;;;8.47;5.57;;;;;;;1.62;100.00;97700.88;5072478;28;20620;-63
2023/01/31 08:38:56;;;;;;;7.37;5.53;;;;;;;1.74;100.00;97713.03;5073809;28;20207;-62
2023/01/31 08:41:25;;;;;;;10.87;5.93;;;;;;;1.82;99.18;97709.84;5057224;28;20430;-64
2023/01/31 08:43:54;;;;;;;6.63;4.97;;;;;;;1.77;98.73;97701.53;5046537;28;20411;-63
2023/01/31 08:46:26;;;;;;;4.57;4.03;;;;;;;1.95;98.59;97700.13;5060276;28;20293;-65
2023/01/31 08:48:54;;;;;;;8.40;4.97;;;;;;;1.72;96.73;97709.69;5016326;28;20214;-63
2023/01/31 08:51:22;;;;;;;6.73;4.30;;;;;;;1.62;97.03;97709.53;5064170;28;20199;-62
2023/01/31 08:53:51;;;;;;;6.47;4.37;;;;;;;1.70;97.21;97707.19;5062370;28;20205;-62
2023/01/31 08:56:20;;;;;;;8.90;4.37;;;;;;;1.69;97.14;97709.91;5059892;28;20214;-65
2023/01/31 08:58:48;;;;;;;5.20;4.50;;;;;;;1.66;96.77;97718.81;5071808;28;20206;-63
2023/01/31 09:01:18;;;;;;;4.77;4.37;;;;;;;1.66;96.96;97715.38;5051929;28;20756;-65
2023/01/31 09:03:46;;;;;;;7.67;5.07;;;;;;;1.59;97.30;97723.69;5024468;28;20222;-65
2023/01/31 09:06:15;;;;;;;8.27;4.30;;;;;;;1.65;97.68;97718.94;5066513;28;20194;-66
2023/01/31 09:08:43;;;;;;;5.13;4.10;;;;;;;1.53;97.30;97711.09;5067119;28;20442;-65
2023/01/31 09:11:15;;;;;;;7.20;4.23;;;;;;;1.47;96.68;97726.34;5067993;28;20213;-67
2023/01/31 09:13:43;;;;;;;7.27;4.47;;;;;;;1.53;96.37;97710.22;5052636;28;20252;-67
2023/01/31 09:16:13;;;;;;;7.00;4.33;;;;;;;1.59;95.92;97717.59;5047826;28;20783;-64
2023/01/31 09:18:41;;;;;;;6.53;5.07;;;;;;;1.62;95.03;97708.72;5032023;28;20217;-62
2023/01/31 09:21:10;;;;;;;7.17;4.27;;;;;;;1.53;94.18;97692.78;5064808;28;20411;-61
2023/01/31 09:23:38;;;;;;;6.20;4.60;;;;;;;1.68;94.21;97710.88;5067286;28;20222;-64
2023/01/31 09:26:09;;;;;;;8.30;4.37;;;;;;;1.65;92.69;97714.53;5065908;28;20225;-64
2023/01/31 09:28:41;;;;;;;5.00;4.50;;;;;;;1.87;93.18;97710.31;5054933;28;20510;-64
2023/01/31 09:31:10;;;;;;;5.30;4.33;;;;;;;1.98;91.84;97701.69;5046264;28;20230;-64
2023/01/31 09:33:38;;;;;;;6.93;4.97;;;;;;;1.99;91.30;97706.75;5017629;28;20750;-67
2023/01/31 09:36:08;;;;;;;8.00;4.67;;;;;;;1.94;90.20;97698.44;5068048;28;20198;-62
2023/01/31 09:38:36;;;;;;;10.23;5.90;;;;;;;1.91;91.11;97697.88;5068993;28;20212;-64
2023/01/31 09:41:06;;;;;;;6.67;4.90;;;;;;;1.94;90.45;97695.84;5069851;28;20234;-62
2023/01/31 09:43:39;;;;;;;8.93;5.67;;;;;;;1.88;90.06;97701.53;5069226;28;20237;-64
2023/01/31 09:46:12;;;;;;;5.87;4.20;;;;;;;1.82;90.53;97713.28;5029072;28;20217;-62
2023/01/31 09:48:42;;;;;;;7.53;5.13;;;;;;;1.81;90.80;97718.63;5067361;28;20581;-64
2023/01/31 09:51:12;;;;;;;7.73;4.80;;;;;;;1.81;90.36;97718.63;5020032;28;20244;-63
2023/01/31 09:53:41;;;;;;;10.60;5.00;;;;;;;1.69;90.81;97720.38;5070413;28;20216;-64
2023/01/31 09:56:20;;;;;;;6.03;5.20;;;;;;;1.93;91.01;97717.69;5067217;28;20217;-64
2023/01/31 09:58:56;;;;;;;9.90;5.00;;;;;;;2.09;90.38;97714.75;5063679;28;20673;-63
2023/01/31 10:01:26;;;;;;;7.87;4.30;;;;;;;2.42;90.44;97713.09;5033912;28;20625;-63
2023/01/31 10:04:16;;;;;;;9.53;5.40;;;;;;;2.01;88.79;97702.25;5067706;28;20549;-62
2023/01/31 10:06:48;;;;;;;6.53;4.70;;;;;;;2.05;88.56;97692.41;5017180;28;20418;-62
2023/01/31 10:09:20;;;;;;;8.40;4.50;;;;;;;1.96;88.46;97703.56;5068175;28;20536;-65
2023/01/31 10:11:51;;;;;;;5.43;4.33;;;;;;;1.96;88.41;97706.19;5065130;28;20201;-62
2023/01/31 10:14:26;;;;;;;5.40;4.83;;;;;;;2.07;88.65;97702.72;5068370;28;20256;-64
2023/01/31 10:17:02;;;;;;;9.23;4.83;;;;;;;2.00;88.80;97700.59;5031292;28;20212;-62
2023/01/31 10:19:33;;;;;;;6.27;4.20;;;;;;;2.20;89.21;97692.16;5061885;28;20221;-64
2023/01/31 10:22:04;;;;;;;8.20;4.53;;;;;;;2.06;88.89;97693.22;5013718;28;20480;-62
2023/01/31 10:24:34;;;;;;;8.97;4.20;;;;;;;1.95;87.82;97681.81;5067438;28;20694;-65
2023/01/31 10:27:05;;;;;;;5.67;4.10;;;;;;;2.03;88.38;97681.25;5073451;28;20202;-62
2023/01/31 10:29:37;;;;;;;6.57;4.70;;;;;;;2.21;87.65;97684.22;5071153;28;20224;-64
2023/01/31 10:32:07;;;;;;;12.53;4.50;;;;;;;2.10;86.77;97676.38;5031383;28;20207;-62
2023/01/31 10:34:40;;;;;;;6.60;4.30;;;;;;;2.12;86.76;97675.28;5067015;28;20209;-65
2023/01/31 10:37:13;;;;;;;9.97;4.50;;;;;;;2.10;86.89;97674.59;5019576;28;20410;-64
2023/01/31 10:39:44;;;;;;;7.50;4.37;;;;;;;2.12;87.63;97669.25;5071658;28;20314;-64
2023/01/31 10:42:20;;;;;;;6.10;3.97;;;;;;;2.14;86.50;97667.34;5073227;28;20586;-64
2023/01/31 10:44:53;;;;;;;6.67;4.90;;;;;;;2.46;86.71;97663.97;5066893;28;20246;-63
2023/01/31 10:47:22;;;;;;;8.60;4.50;;;;;;;2.30;86.71;97657.34;5035728;28;20500;-64
2023/01/31 10:49:50;;;;;;;7.20;3.70;;;;;;;2.27;86.99;97654.97;5072035;28;20224;-61
2023/01/31 10:52:28;;;;;;;6.33;3.90;;;;;;;2.33;85.95;97651.06;5018290;28;20653;-64
2023/01/31 10:55:04;;;;;;;5.87;3.87;;;;;;;2.37;86.92;97647.25;5072086;28;20475;-61
2023/01/31 10:57:32;;;;;;;7.13;4.23;;;;;;;2.36;85.71;97640.34;5065454;28;20202;-65
2023/01/31 11:00:01;;;;;;;6.83;4.10;;;;;;;2.29;85.72;97628.72;5072251;28;20218;-62
2023/01/31 11:02:29;;;;;;;5.87;4.10;;;;;;;2.29;85.58;97634.75;5055734;28;20206;-63
2023/01/31 11:04:59;;;;;;;7.17;3.77;;;;;;;2.03;84.80;97623.72;5052100;28;20717;-62
2023/01/31 11:07:29;;;;;;;5.67;4.47;;;;;;;2.03;85.02;97621.94;5018137;28;21459;-64
2023/01/31 11:09:57;;;;;;;5.37;4.00;;;;;;;2.04;86.10;97620.16;5078416;28;20216;-62
2023/01/31 11:12:40;;;;;;;6.23;4.53;;;;;;;2.12;85.64;97628.25;5067038;28;20226;-64
2023/01/31 11:15:16;;;;;;;4.40;3.70;;;;;;;1.98;85.40;97618.84;5076989;28;20213;-62
2023/01/31 11:17:44;;;;;;;7.67;4.43;;;;;;;2.03;85.72;97608.06;5056611;28;20198;-64
2023/01/31 11:20:21;;;;;;;6.40;4.93;;;;;;;2.20;85.65;97604.13;5049036;28;20470;-64
2023/01/31 11:22:50;;;;;;;7.43;3.50;;;;;;;2.28;85.40;97593.88;5017162;28;20292;-62
2023/01/31 11:25:20;;;;;;;10.07;4.07;;;;;;;2.59;85.24;97587.97;5066570;28;20421;-64
2023/01/31 11:27:49;;;;;;;4.67;3.63;;;;;;;2.68;84.16;97586.41;5070549;28;20403;-62
2023/01/31 11:30:25;;;;;;;8.10;4.60;;;;;;;2.66;83.20;97583.09;5066750;28;20335;-62
2023/01/31 11:32:53;;;;;;;10.27;4.77;;;;;;;2.62;83.88;97577.25;5056044;28;20774;-61
2023/01/31 11:35:27;;;;;;;7.03;3.90;;;;;;;2.74;83.20;97576.28;5054651;28;20798;-61
2023/01/31 11:37:56;;;;;;;6.27;4.20;;;;;;;2.58;82.83;97555.78;5042462;28;20194;-62
2023/01/31 11:40:30;;;;;;;6.00;3.70;;;;;;;2.59;82.72;97567.03;5057368;28;20298;-65
2023/01/31 11:42:59;;;;;;;6.77;3.80;;;;;;;2.37;82.49;97554.88;5066406;28;20207;-62
2023/01/31 11:45:30;;;;;;;5.47;4.57;;;;;;;2.31;83.67;97548.38;5064969;28;20218;-64
2023/01/31 11:47:59;;;;;;;7.40;3.97;;;;;;;2.44;84.29;97548.19;5060052;28;20198;-62
2023/01/31 11:50:32;;;;;;;7.07;4.37;;;;;;;2.67;84.22;97542.88;5049624;28;20317;-64
2023/01/31 11:53:01;;;;;;;5.60;4.07;;;;;;;2.87;83.42;97554.34;5030108;28;20653;-62
2023/01/31 11:55:36;;;;;;;9.60;5.30;;;;;;;2.88;83.38;97548.16;5066729;28;20235;-65